createdAt,value
2022-08-26T00:00:57.452Z,85.13
2022-08-26T00:06:01.548Z,85.03
2022-08-26T00:11:07.799Z,85.07
2022-08-26T00:16:13.667Z,85.09
2022-08-26T00:21:19.053Z,85.13
2022-08-26T00:26:23.449Z,85.68
2022-08-26T00:31:33.431Z,86.44
2022-08-26T00:36:40.754Z,86.36
2022-08-26T00:41:45.184Z,86.19
2022-08-26T00:47:00.368Z,86.10
2022-08-26T00:52:13.282Z,85.92
2022-08-26T00:57:21.896Z,85.94
2022-08-26T01:02:26.506Z,86.18
2022-08-26T01:07:35.466Z,86.15
2022-08-26T01:12:51.640Z,86.21
2022-08-26T01:17:55.985Z,86.57
2022-08-26T01:23:05.146Z,86.54
2022-08-26T01:28:17.349Z,86.61
2022-08-26T01:33:42.232Z,86.72
2022-08-26T01:38:47.357Z,86.80
2022-08-26T01:43:56.237Z,86.81
2022-08-26T01:49:06.477Z,86.89
2022-08-26T01:54:13.876Z,86.96
2022-08-26T01:59:20.788Z,87.24
2022-08-26T02:04:34.422Z,87.33
2022-08-26T02:09:41.632Z,87.19
2022-08-26T02:14:54.336Z,87.06
2022-08-26T02:19:59.201Z,86.88
2022-08-26T02:25:52.452Z,86.84
2022-08-26T02:30:56.834Z,86.79
2022-08-26T02:36:01.332Z,86.67
2022-08-26T02:41:06.507Z,86.70
2022-08-26T02:46:12.313Z,86.74
2022-08-26T02:51:25.817Z,87.00
2022-08-26T02:56:30.055Z,87.23
2022-08-26T03:01:36.902Z,87.33
2022-08-26T03:06:41.547Z,87.61
2022-08-26T03:11:47.654Z,87.75
2022-08-26T03:16:54.852Z,88.07
2022-08-26T03:22:00.216Z,88.14
2022-08-26T03:27:07.272Z,88.24
2022-08-26T03:32:11.608Z,88.50
2022-08-26T03:37:16.126Z,88.50
2022-08-26T03:42:22.664Z,88.38
2022-08-26T03:47:26.751Z,88.38
2022-08-26T03:52:31.996Z,88.52
2022-08-26T03:57:36.653Z,88.72
2022-08-26T04:02:40.962Z,89.17
2022-08-26T04:07:46.815Z,89.54
2022-08-26T04:12:52.772Z,89.74
2022-08-26T04:17:57.267Z,89.82
2022-08-26T04:23:02.209Z,89.71
2022-08-26T04:28:07.315Z,89.61
2022-08-26T04:33:14.329Z,89.58
2022-08-26T04:38:20.525Z,89.56
2022-08-26T04:43:30.920Z,89.68
2022-08-26T04:48:35.944Z,89.67
2022-08-26T04:53:40.413Z,89.55
2022-08-26T04:58:44.835Z,89.39
2022-08-26T05:03:50.338Z,89.20
2022-08-26T05:08:56.078Z,89.21
2022-08-26T05:14:02.340Z,89.25
2022-08-26T05:19:08.385Z,89.12
2022-08-26T05:24:13.488Z,88.84
2022-08-26T05:29:18.048Z,88.54
2022-08-26T05:34:25.743Z,87.93
2022-08-26T05:39:35.233Z,86.96
2022-08-26T05:44:53.819Z,86.13
2022-08-26T05:50:02.628Z,85.04
2022-08-26T05:55:07.550Z,83.89
2022-08-26T06:00:15.985Z,82.63
2022-08-26T06:05:21.105Z,80.53
2022-08-26T06:10:32.401Z,78.99
2022-08-26T06:15:46.051Z,77.74
2022-08-26T06:20:57.689Z,75.83
2022-08-26T06:26:04.073Z,74.17
2022-08-26T06:31:08.322Z,74.50
2022-08-26T06:36:22.138Z,74.80
2022-08-26T06:41:28.572Z,74.72
2022-08-26T06:46:33.779Z,74.07
2022-08-26T06:51:41.286Z,72.80
2022-08-26T06:56:45.559Z,70.72
2022-08-26T07:01:53.541Z,68.10
2022-08-26T07:06:58.428Z,67.48
2022-08-26T07:12:02.839Z,65.83
2022-08-26T07:17:12.178Z,65.33
2022-08-26T07:22:19.202Z,63.49
2022-08-26T07:27:26.392Z,63.30
2022-08-26T07:32:30.645Z,62.93
2022-08-26T07:37:39.227Z,61.05
2022-08-26T07:42:43.718Z,60.79
2022-08-26T07:47:48.577Z,60.26
2022-08-26T07:52:52.610Z,59.22
2022-08-26T07:57:58.420Z,59.38
2022-08-26T08:03:06.390Z,59.76
2022-08-26T08:08:17.320Z,60.21
2022-08-26T08:13:33.464Z,60.94
2022-08-26T08:18:37.540Z,60.89
2022-08-26T08:23:41.888Z,60.69
2022-08-26T08:28:49.402Z,59.35
2022-08-26T08:33:54.347Z,57.72
2022-08-26T08:38:58.390Z,57.13
2022-08-26T08:44:04.531Z,56.20
2022-08-26T08:49:11.583Z,54.83
2022-08-26T08:54:16.531Z,53.62
2022-08-26T08:59:24.588Z,52.92
2022-08-26T09:05:17.810Z,53.37
2022-08-26T09:10:34.119Z,54.59
2022-08-26T09:16:17.439Z,54.81
2022-08-26T09:21:26.213Z,53.22
2022-08-26T09:26:48.170Z,51.83
2022-08-26T09:32:14.253Z,49.47
2022-08-26T09:43:09.408Z,48.28
2022-08-26T09:48:36.646Z,48.96
2022-08-26T09:54:30.248Z,48.28
2022-08-26T09:59:34.892Z,47.74
2022-08-26T10:04:39.284Z,47.55
2022-08-26T10:09:45.057Z,46.22
2022-08-26T10:14:57.134Z,45.49
2022-08-26T10:20:37.071Z,45.81
2022-08-26T10:25:54.099Z,46.75
2022-08-26T10:31:51.410Z,46.29
2022-08-26T10:37:16.254Z,46.02
2022-08-26T10:43:00.489Z,47.94
2022-08-26T10:48:18.679Z,48.42
2022-08-26T10:54:00.874Z,48.25
2022-08-26T10:59:33.084Z,47.60
2022-08-26T11:04:56.278Z,47.35
2022-08-26T11:10:22.606Z,46.97
2022-08-26T11:16:03.295Z,48.91
2022-08-26T11:21:57.449Z,49.26
2022-08-26T11:27:06.815Z,48.56
2022-08-26T11:32:56.667Z,47.87
2022-08-26T11:38:32.286Z,47.94
2022-08-26T11:43:43.358Z,46.08
2022-08-26T11:48:49.306Z,44.69
2022-08-26T11:54:13.242Z,43.03
2022-08-26T12:04:49.941Z,40.59
2022-08-26T12:10:02.710Z,40.05
2022-08-26T12:15:23.478Z,39.38
2022-08-26T12:20:55.090Z,39.24
2022-08-26T12:26:23.771Z,39.88
2022-08-26T12:31:32.173Z,39.13
2022-08-26T12:36:47.492Z,39.03
2022-08-26T12:41:58.406Z,40.34
2022-08-26T12:47:35.199Z,40.22
2022-08-26T12:53:13.180Z,40.38
2022-08-26T12:58:17.824Z,40.78
2022-08-26T13:03:48.680Z,38.97
2022-08-26T13:08:58.295Z,39.67
2022-08-26T13:14:23.779Z,39.76
2022-08-26T13:19:30.152Z,39.48
2022-08-26T13:24:42.919Z,38.85
2022-08-26T13:29:48.579Z,39.21
2022-08-26T13:34:57.606Z,38.71
2022-08-26T13:40:07.460Z,38.79
2022-08-26T13:45:12.622Z,38.60
2022-08-26T13:50:17.080Z,38.47
2022-08-26T13:55:21.528Z,37.28
2022-08-26T14:00:26.842Z,37.96
2022-08-26T14:05:31.972Z,40.01
2022-08-26T14:10:37.536Z,40.92
2022-08-26T14:15:42.771Z,42.53
2022-08-26T14:20:51.254Z,43.29
2022-08-26T14:25:57.460Z,43.81
2022-08-26T14:31:05.257Z,44.15
2022-08-26T14:36:29.733Z,43.67
2022-08-26T14:41:41.170Z,43.15
2022-08-26T14:46:51.399Z,43.40
2022-08-26T14:52:14.375Z,42.13
2022-08-26T14:57:23.876Z,39.46
2022-08-26T15:02:33.146Z,37.21
2022-08-26T15:07:40.333Z,35.42
2022-08-26T15:12:45.642Z,34.28
2022-08-26T15:17:51.203Z,33.35
2022-08-26T15:22:55.135Z,33.49
2022-08-26T15:28:02.303Z,33.18
2022-08-26T15:33:15.227Z,32.81
2022-08-26T15:38:22.081Z,32.99
2022-08-26T15:43:28.975Z,33.01
2022-08-26T15:48:33.335Z,33.22
2022-08-26T15:53:37.691Z,33.58
2022-08-26T15:58:44.904Z,34.24
2022-08-26T16:03:56.074Z,34.17
2022-08-26T16:09:01.100Z,34.69
2022-08-26T16:14:06.580Z,34.92
2022-08-26T16:19:12.371Z,35.12
2022-08-26T16:24:17.651Z,35.53
2022-08-26T16:29:23.782Z,35.92
2022-08-26T16:34:28.043Z,36.28
2022-08-26T16:39:32.190Z,37.06
2022-08-26T16:44:46.151Z,38.35
2022-08-26T16:49:52.131Z,39.85
2022-08-26T16:54:56.594Z,40.90
2022-08-26T17:00:07.937Z,42.15
2022-08-26T17:05:15.688Z,44.22
2022-08-26T17:10:21.296Z,45.63
2022-08-26T17:15:26.350Z,46.96
2022-08-26T17:20:30.731Z,48.30
2022-08-26T17:25:37.782Z,49.56
2022-08-26T17:30:43.446Z,51.09
2022-08-26T17:35:47.450Z,52.63
2022-08-26T17:40:52.577Z,54.06
2022-08-26T17:46:06.878Z,55.21
2022-08-26T17:51:17.104Z,57.22
2022-08-26T17:56:26.934Z,59.22
2022-08-26T18:01:31.976Z,60.32
2022-08-26T18:06:36.420Z,60.98
2022-08-26T18:11:41.797Z,62.04
2022-08-26T18:16:46.534Z,62.83
2022-08-26T18:21:52.539Z,63.53
2022-08-26T18:26:57.779Z,63.99
2022-08-26T18:32:02.115Z,64.75
2022-08-26T18:43:17.062Z,66.28
2022-08-26T18:48:24.873Z,66.48
2022-08-26T18:53:32.114Z,66.87
2022-08-26T18:58:41.599Z,66.79
2022-08-26T19:03:47.004Z,66.00
2022-08-26T19:08:51.715Z,65.83
2022-08-26T19:13:58.247Z,66.10
2022-08-26T19:19:04.135Z,66.49
2022-08-26T19:24:17.688Z,66.85
2022-08-26T19:29:25.350Z,67.33
2022-08-26T19:34:30.618Z,67.16
2022-08-26T19:39:35.362Z,68.03
2022-08-26T19:44:59.140Z,68.42
2022-08-26T19:50:07.652Z,68.58
2022-08-26T19:55:20.588Z,68.82
2022-08-26T20:00:30.284Z,68.81
2022-08-26T20:05:35.438Z,68.58
2022-08-26T20:10:40.216Z,69.55
2022-08-26T20:15:47.400Z,70.39
2022-08-26T20:21:10.978Z,71.66
2022-08-26T20:26:15.240Z,72.38
2022-08-26T20:31:20.057Z,72.31
2022-08-26T20:36:30.000Z,72.19
2022-08-26T20:41:34.389Z,71.90
2022-08-26T20:46:39.283Z,72.41
2022-08-26T20:51:45.012Z,73.07
2022-08-26T20:56:53.088Z,73.81
2022-08-26T21:01:59.479Z,74.65
2022-08-26T21:07:03.872Z,75.18
2022-08-26T21:12:09.981Z,75.29
2022-08-26T21:17:14.788Z,75.32
2022-08-26T21:22:21.997Z,75.14
2022-08-26T21:27:27.902Z,74.76
2022-08-26T21:32:33.469Z,74.51
2022-08-26T21:37:37.589Z,74.21
2022-08-26T21:42:41.937Z,74.47
2022-08-26T21:47:46.979Z,74.75
2022-08-26T21:52:51.069Z,74.97
2022-08-26T21:57:55.568Z,75.15
2022-08-26T22:03:01.444Z,75.32
2022-08-26T22:08:05.650Z,75.36
2022-08-26T22:13:10.668Z,75.39
2022-08-26T22:18:16.346Z,75.19
2022-08-26T22:23:21.427Z,75.39
2022-08-26T22:28:26.509Z,75.59
2022-08-26T22:33:30.672Z,75.84
2022-08-26T22:38:35.507Z,75.90
2022-08-26T22:43:39.816Z,75.88
2022-08-26T22:48:44.389Z,75.89
2022-08-26T22:53:48.534Z,76.07
2022-08-26T22:58:54.005Z,76.19
2022-08-26T23:03:58.439Z,76.07
2022-08-26T23:09:02.810Z,75.82
2022-08-26T23:14:10.670Z,75.69
2022-08-26T23:19:18.088Z,75.53
2022-08-26T23:24:22.660Z,75.44
2022-08-26T23:29:28.280Z,75.69
2022-08-26T23:34:51.918Z,75.71
2022-08-26T23:39:56.925Z,76.00
2022-08-26T23:45:01.657Z,76.00
2022-08-26T23:50:08.221Z,76.16
2022-08-26T23:55:14.022Z,76.51
